Aviation Digital Data Service (ADDS)

Output produced by TAFs form (1021 UTC 28 July 2015)
found at http://www.aviationweather.gov/adds/tafs/
 
KPOU 281007Z 2810/2906 00000KT 5SM BR SCT005 
     TEMPO 2810/2812 2SM BR BKN005 
     FM281200 VRB03KT P6SM SCT050 
     FM290100 00000KT P6SM SKC